Terminal Aerodrome Forecast
Issued by NWS

Home | Current Version | Previous Version | Text Only | Print | Product List | Glossary On
Versions: 1 2 3 4 5 6 7 8 9 10 11 12 13 14 15 16 17 18 19 20 21 22 23 24 25 26 27 28 29 30 31 32
000
FTUS45 KGJT 121725
TAFVEL
TAF
KVEL 121725Z 1218/1318 VRB03KT P6SM SCT200
     FM122000 VRB05KT P6SM SCT090 SCT150
     FM130200 27003KT P6SM SCT110 SCT200
     FM130600 31004KT P6SM FEW200=

USA.gov is the U.S. government's official web portal to all federal, state and local government web resources and services.